Main page
METAR-TAF:

METAR-TAF

Airports :

Ferrara, Italy

latitude: 44-50N, longitude: 011-37E, elevation: 10 m

Current weather observation

The report was made 2 hours and 24 minutes ago, at 17:55 UTC
Calm wind
Temperature -1°C
Humidity 74%
Pressure 1018 hPa
Visibility 10 km or more
no clouds below 1500 m and no cumulonimbus

METAR: LIPF 121755Z 00000KT CAVOK M01/M05 Q1018 RMK SKC VIS MIN 9999

Time: 21:19 (20:19 UTC)


TAF: missing

Weather observations and forecasts of more than 4000 airports (METAR and TAF reports).

The available stations are represented by yellow and red dots on the map.

Hover mouse over dot to see the name of the station.

Then click to see weather observations and forecasts.

To change the map : click on the green buttons with a black cross to zoom in, on the green button with a dash to zoom out, or on the green arrows for adjacent maps.


METAR-TAF: